sensor_id;sensor_type;location;lat;lon;timestamp;temperature;humidity
23371;DHT22;11858;51.056;3.712;2024-01-10T00:01:18;-2.70;99.90
23371;DHT22;11858;51.056;3.712;2024-01-10T00:03:44;-2.60;99.90
23371;DHT22;11858;51.056;3.712;2024-01-10T00:06:10;-2.60;99.90
23371;DHT22;11858;51.056;3.712;2024-01-10T00:08:36;-2.60;99.90
23371;DHT22;11858;51.056;3.712;2024-01-10T00:11:02;-2.60;99.90
23371;DHT22;11858;51.056;3.712;2024-01-10T00:13:29;-2.70;99.90
23371;DHT22;11858;51.056;3.712;2024-01-10T00:15:54;-2.80;99.90
23371;DHT22;11858;51.056;3.712;2024-01-10T00:18:21;-2.60;99.90
23371;DHT22;11858;51.056;3.712;2024-01-10T00:20:47;-2.80;99.90
23371;DHT22;11858;51.056;3.712;2024-01-10T00:23:13;-2.90;99.90
23371;DHT22;11858;51.056;3.712;2024-01-10T00:25:38;-2.90;99.90
23371;DHT22;11858;51.056;3.712;2024-01-10T00:28:05;-2.80;99.90
23371;DHT22;11858;51.056;3.712;2024-01-10T00:30:31;-2.90;99.90
23371;DHT22;11858;51.056;3.712;2024-01-10T00:32:56;-2.90;99.90
23371;DHT22;11858;51.056;3.712;2024-01-10T00:35:22;-2.90;99.90
23371;DHT22;11858;51.056;3.712;2024-01-10T00:37:48;-2.90;99.90
23371;DHT22;11858;51.056;3.712;2024-01-10T00:40:13;-3.00;99.90
23371;DHT22;11858;51.056;3.712;2024-01-10T00:42:39;-3.10;99.90
23371;DHT22;11858;51.056;3.712;2024-01-10T00:45:05;-3.00;99.90
23371;DHT22;11858;51.056;3.712;2024-01-10T00:47:31;-3.00;99.90
23371;DHT22;11858;51.056;3.712;2024-01-10T00:49:57;-3.00;99.90
23371;DHT22;11858;51.056;3.712;2024-01-10T00:52:23;-3.00;99.90
23371;DHT22;11858;51.056;3.712;2024-01-10T00:54:49;-3.00;99.90
23371;DHT22;11858;51.056;3.712;2024-01-10T00:57:14;-2.90;99.90
23371;DHT22;11858;51.056;3.712;2024-01-10T00:59:40;-2.80;99.90
23371;DHT22;11858;51.056;3.712;2024-01-10T01:02:06;-2.90;99.90
23371;DHT22;11858;51.056;3.712;2024-01-10T01:04:32;-2.80;99.90
23371;DHT22;11858;51.056;3.712;2024-01-10T01:06:57;-3.00;99.90
23371;DHT22;11858;51.056;3.712;2024-01-10T01:09:23;-3.00;99.90
23371;DHT22;11858;51.056;3.712;2024-01-10T01:11:49;-3.10;99.90
23371;DHT22;11858;51.056;3.712;2024-01-10T01:14:15;-3.20;99.90
23371;DHT22;11858;51.056;3.712;2024-01-10T01:16:40;-3.20;99.90
23371;DHT22;11858;51.056;3.712;2024-01-10T01:19:06;-3.10;99.90
23371;DHT22;11858;51.056;3.712;2024-01-10T01:21:31;-3.00;99.90
23371;DHT22;11858;51.056;3.712;2024-01-10T01:23:57;-3.10;99.90
23371;DHT22;11858;51.056;3.712;2024-01-10T01:26:23;-3.00;99.90
23371;DHT22;11858;51.056;3.712;2024-01-10T01:28:48;-3.00;99.90
23371;DHT22;11858;51.056;3.712;2024-01-10T01:31:14;-3.00;99.90
23371;DHT22;11858;51.056;3.712;2024-01-10T01:33:39;-3.10;99.90
23371;DHT22;11858;51.056;3.712;2024-01-10T01:36:06;-3.10;99.90
23371;DHT22;11858;51.056;3.712;2024-01-10T01:38:32;-3.10;99.90
23371;DHT22;11858;51.056;3.712;2024-01-10T01:40:57;-3.10;99.90
23371;DHT22;11858;51.056;3.712;2024-01-10T01:43:24;-3.20;99.90
23371;DHT22;11858;51.056;3.712;2024-01-10T01:45:52;-3.30;99.90
23371;DHT22;11858;51.056;3.712;2024-01-10T01:48:20;-3.30;99.90
23371;DHT22;11858;51.056;3.712;2024-01-10T01:50:46;-3.40;99.90
23371;DHT22;11858;51.056;3.712;2024-01-10T01:53:14;-3.50;99.90
23371;DHT22;11858;51.056;3.712;2024-01-10T01:55:42;-3.30;99.90
23371;DHT22;11858;51.056;3.712;2024-01-10T01:58:08;-3.40;99.90
23371;DHT22;11858;51.056;3.712;2024-01-10T02:00:34;-3.20;99.90
23371;DHT22;11858;51.056;3.712;2024-01-10T02:03:01;-3.30;99.90
23371;DHT22;11858;51.056;3.712;2024-01-10T02:05:28;-3.40;99.90
23371;DHT22;11858;51.056;3.712;2024-01-10T02:07:54;-3.40;99.90
23371;DHT22;11858;51.056;3.712;2024-01-10T02:10:21;-3.50;99.90
23371;DHT22;11858;51.056;3.712;2024-01-10T02:12:47;-3.40;99.90
23371;DHT22;11858;51.056;3.712;2024-01-10T02:15:14;-3.40;99.90
23371;DHT22;11858;51.056;3.712;2024-01-10T02:17:40;-3.50;99.90
23371;DHT22;11858;51.056;3.712;2024-01-10T02:20:09;-3.50;99.90
23371;DHT22;11858;51.056;3.712;2024-01-10T02:22:35;-3.50;99.90
23371;DHT22;11858;51.056;3.712;2024-01-10T02:25:01;-3.50;99.90
23371;DHT22;11858;51.056;3.712;2024-01-10T02:27:26;-3.50;99.90
23371;DHT22;11858;51.056;3.712;2024-01-10T02:29:53;-3.30;99.90
23371;DHT22;11858;51.056;3.712;2024-01-10T02:32:20;-3.30;99.90
23371;DHT22;11858;51.056;3.712;2024-01-10T02:34:45;-3.30;99.90
23371;DHT22;11858;51.056;3.712;2024-01-10T02:37:11;-3.40;99.90
23371;DHT22;11858;51.056;3.712;2024-01-10T02:39:36;-3.40;99.90
23371;DHT22;11858;51.056;3.712;2024-01-10T02:42:02;-3.50;99.90
23371;DHT22;11858;51.056;3.712;2024-01-10T02:44:28;-3.50;99.90
23371;DHT22;11858;51.056;3.712;2024-01-10T02:46:53;-3.60;99.90
23371;DHT22;11858;51.056;3.712;2024-01-10T02:49:19;-3.70;99.90
23371;DHT22;11858;51.056;3.712;2024-01-10T02:51:45;-3.80;99.90
23371;DHT22;11858;51.056;3.712;2024-01-10T02:54:11;-3.70;99.90
23371;DHT22;11858;51.056;3.712;2024-01-10T02:56:36;-3.70;99.90
23371;DHT22;11858;51.056;3.712;2024-01-10T02:59:02;-3.80;99.90
23371;DHT22;11858;51.056;3.712;2024-01-10T03:01:28;-3.70;99.90
23371;DHT22;11858;51.056;3.712;2024-01-10T03:03:53;-3.60;99.90
23371;DHT22;11858;51.056;3.712;2024-01-10T03:06:19;-3.50;99.90
23371;DHT22;11858;51.056;3.712;2024-01-10T03:08:45;-3.50;99.90
23371;DHT22;11858;51.056;3.712;2024-01-10T03:11:10;-3.70;99.90
23371;DHT22;11858;51.056;3.712;2024-01-10T03:13:36;-3.60;99.90
23371;DHT22;11858;51.056;3.712;2024-01-10T03:16:03;-3.70;99.90
23371;DHT22;11858;51.056;3.712;2024-01-10T03:18:29;-3.70;99.90
23371;DHT22;11858;51.056;3.712;2024-01-10T03:20:54;-3.60;99.90
23371;DHT22;11858;51.056;3.712;2024-01-10T03:23:21;-3.70;99.90
23371;DHT22;11858;51.056;3.712;2024-01-10T03:25:47;-3.70;99.90
23371;DHT22;11858;51.056;3.712;2024-01-10T03:28:17;-3.80;99.90
23371;DHT22;11858;51.056;3.712;2024-01-10T03:30:43;-3.70;99.90
23371;DHT22;11858;51.056;3.712;2024-01-10T03:33:09;-3.60;99.90
23371;DHT22;11858;51.056;3.712;2024-01-10T03:35:34;-3.50;99.90
23371;DHT22;11858;51.056;3.712;2024-01-10T03:38:00;-3.50;99.90
23371;DHT22;11858;51.056;3.712;2024-01-10T03:40:26;-3.60;99.90
23371;DHT22;11858;51.056;3.712;2024-01-10T03:42:51;-3.70;99.90
23371;DHT22;11858;51.056;3.712;2024-01-10T03:45:18;-3.80;99.90
23371;DHT22;11858;51.056;3.712;2024-01-10T03:47:46;-3.70;99.90
23371;DHT22;11858;51.056;3.712;2024-01-10T03:50:16;-3.60;99.90
23371;DHT22;11858;51.056;3.712;2024-01-10T03:52:43;-3.80;99.90
23371;DHT22;11858;51.056;3.712;2024-01-10T03:55:09;-3.80;99.90
23371;DHT22;11858;51.056;3.712;2024-01-10T03:57:34;-3.80;99.90
23371;DHT22;11858;51.056;3.712;2024-01-10T04:00:00;-3.80;99.90
23371;DHT22;11858;51.056;3.712;2024-01-10T04:02:26;-3.90;99.90
23371;DHT22;11858;51.056;3.712;2024-01-10T04:04:53;-3.90;99.90
23371;DHT22;11858;51.056;3.712;2024-01-10T04:07:19;-3.80;99.90
23371;DHT22;11858;51.056;3.712;2024-01-10T04:09:45;-3.80;99.90
23371;DHT22;11858;51.056;3.712;2024-01-10T04:12:10;-3.70;99.90
23371;DHT22;11858;51.056;3.712;2024-01-10T04:14:36;-3.70;99.90
23371;DHT22;11858;51.056;3.712;2024-01-10T04:17:02;-3.60;99.90
23371;DHT22;11858;51.056;3.712;2024-01-10T04:19:30;-3.70;99.90
23371;DHT22;11858;51.056;3.712;2024-01-10T04:21:55;-3.70;99.90
23371;DHT22;11858;51.056;3.712;2024-01-10T04:24:21;-3.70;99.90
23371;DHT22;11858;51.056;3.712;2024-01-10T04:26:47;-3.60;99.90
23371;DHT22;11858;51.056;3.712;2024-01-10T04:29:12;-3.60;99.90
23371;DHT22;11858;51.056;3.712;2024-01-10T04:31:38;-3.60;99.90
23371;DHT22;11858;51.056;3.712;2024-01-10T04:34:04;-3.70;99.90
23371;DHT22;11858;51.056;3.712;2024-01-10T04:36:29;-3.70;99.90
23371;DHT22;11858;51.056;3.712;2024-01-10T04:38:55;-3.60;99.90
23371;DHT22;11858;51.056;3.712;2024-01-10T04:41:20;-3.20;99.90
23371;DHT22;11858;51.056;3.712;2024-01-10T04:43:46;-3.40;99.90
23371;DHT22;11858;51.056;3.712;2024-01-10T04:46:12;-3.40;99.90
23371;DHT22;11858;51.056;3.712;2024-01-10T04:48:38;-3.50;99.90
23371;DHT22;11858;51.056;3.712;2024-01-10T04:51:03;-3.50;99.90
23371;DHT22;11858;51.056;3.712;2024-01-10T04:53:29;-3.50;99.90
23371;DHT22;11858;51.056;3.712;2024-01-10T04:55:55;-3.60;99.90
23371;DHT22;11858;51.056;3.712;2024-01-10T04:58:21;-3.60;99.90
23371;DHT22;11858;51.056;3.712;2024-01-10T05:00:46;-3.60;99.90
23371;DHT22;11858;51.056;3.712;2024-01-10T05:03:12;-3.60;99.90
23371;DHT22;11858;51.056;3.712;2024-01-10T05:05:38;-3.50;99.90
23371;DHT22;11858;51.056;3.712;2024-01-10T05:08:04;-3.50;99.90
23371;DHT22;11858;51.056;3.712;2024-01-10T05:10:30;-3.60;99.90
23371;DHT22;11858;51.056;3.712;2024-01-10T05:12:56;-3.70;99.90
23371;DHT22;11858;51.056;3.712;2024-01-10T05:15:22;-3.70;99.90
23371;DHT22;11858;51.056;3.712;2024-01-10T05:17:47;-3.60;99.90
23371;DHT22;11858;51.056;3.712;2024-01-10T05:20:13;-3.50;99.90
23371;DHT22;11858;51.056;3.712;2024-01-10T05:22:40;-3.50;99.90
23371;DHT22;11858;51.056;3.712;2024-01-10T05:25:06;-3.50;99.90
23371;DHT22;11858;51.056;3.712;2024-01-10T05:27:32;-3.30;99.90
23371;DHT22;11858;51.056;3.712;2024-01-10T05:29:58;-3.30;99.90
23371;DHT22;11858;51.056;3.712;2024-01-10T05:32:25;-3.40;99.90
23371;DHT22;11858;51.056;3.712;2024-01-10T05:34:52;-3.40;99.90
23371;DHT22;11858;51.056;3.712;2024-01-10T05:37:18;-3.50;99.90
23371;DHT22;11858;51.056;3.712;2024-01-10T05:39:43;-3.50;99.90
23371;DHT22;11858;51.056;3.712;2024-01-10T05:42:09;-3.50;99.90
23371;DHT22;11858;51.056;3.712;2024-01-10T05:44:35;-3.50;99.90
23371;DHT22;11858;51.056;3.712;2024-01-10T05:47:00;-3.40;99.90
23371;DHT22;11858;51.056;3.712;2024-01-10T05:49:26;-3.50;99.90
23371;DHT22;11858;51.056;3.712;2024-01-10T05:51:52;-3.60;99.90
23371;DHT22;11858;51.056;3.712;2024-01-10T05:54:17;-3.80;99.90
23371;DHT22;11858;51.056;3.712;2024-01-10T05:56:44;-3.80;99.90
23371;DHT22;11858;51.056;3.712;2024-01-10T05:59:09;-3.80;99.90
23371;DHT22;11858;51.056;3.712;2024-01-10T06:01:38;-3.70;99.90
23371;DHT22;11858;51.056;3.712;2024-01-10T06:04:05;-3.80;99.90
23371;DHT22;11858;51.056;3.712;2024-01-10T06:06:31;-3.80;99.90
23371;DHT22;11858;51.056;3.712;2024-01-10T06:08:57;-3.80;99.90
23371;DHT22;11858;51.056;3.712;2024-01-10T06:11:23;-3.80;99.90
23371;DHT22;11858;51.056;3.712;2024-01-10T06:13:49;-3.70;99.90
23371;DHT22;11858;51.056;3.712;2024-01-10T06:16:14;-3.70;99.90
23371;DHT22;11858;51.056;3.712;2024-01-10T06:18:40;-3.70;99.90
23371;DHT22;11858;51.056;3.712;2024-01-10T06:21:06;-3.70;99.90
23371;DHT22;11858;51.056;3.712;2024-01-10T06:23:31;-3.70;99.90
23371;DHT22;11858;51.056;3.712;2024-01-10T06:25:57;-3.70;99.90
23371;DHT22;11858;51.056;3.712;2024-01-10T06:28:23;-3.80;99.90
23371;DHT22;11858;51.056;3.712;2024-01-10T06:30:51;-3.90;99.90
23371;DHT22;11858;51.056;3.712;2024-01-10T06:33:17;-3.80;99.90
23371;DHT22;11858;51.056;3.712;2024-01-10T06:35:45;-3.80;99.90
23371;DHT22;11858;51.056;3.712;2024-01-10T06:38:11;-3.70;99.90
23371;DHT22;11858;51.056;3.712;2024-01-10T06:40:36;-3.60;99.90
23371;DHT22;11858;51.056;3.712;2024-01-10T06:43:05;-3.70;99.90
23371;DHT22;11858;51.056;3.712;2024-01-10T06:45:34;-3.70;99.90
23371;DHT22;11858;51.056;3.712;2024-01-10T06:48:00;-3.80;99.90
23371;DHT22;11858;51.056;3.712;2024-01-10T06:50:25;-3.80;99.90
23371;DHT22;11858;51.056;3.712;2024-01-10T06:52:51;-3.90;99.90
23371;DHT22;11858;51.056;3.712;2024-01-10T06:55:16;-4.00;99.90
23371;DHT22;11858;51.056;3.712;2024-01-10T06:57:43;-3.90;99.90
23371;DHT22;11858;51.056;3.712;2024-01-10T07:00:09;-3.90;99.90
23371;DHT22;11858;51.056;3.712;2024-01-10T07:02:37;-4.00;99.90
23371;DHT22;11858;51.056;3.712;2024-01-10T07:05:07;-4.00;99.90
23371;DHT22;11858;51.056;3.712;2024-01-10T07:07:33;-4.00;99.90
23371;DHT22;11858;51.056;3.712;2024-01-10T07:10:01;-4.00;99.90
23371;DHT22;11858;51.056;3.712;2024-01-10T07:12:30;-3.90;99.90
23371;DHT22;11858;51.056;3.712;2024-01-10T07:14:57;-3.90;99.90
23371;DHT22;11858;51.056;3.712;2024-01-10T07:17:22;-3.80;99.90
23371;DHT22;11858;51.056;3.712;2024-01-10T07:19:48;-3.70;99.90
23371;DHT22;11858;51.056;3.712;2024-01-10T07:22:14;-3.80;99.90
23371;DHT22;11858;51.056;3.712;2024-01-10T07:24:40;-3.90;99.90
23371;DHT22;11858;51.056;3.712;2024-01-10T07:27:06;-4.00;99.90
23371;DHT22;11858;51.056;3.712;2024-01-10T07:29:34;-3.90;99.90
23371;DHT22;11858;51.056;3.712;2024-01-10T07:31:59;-3.90;99.90
23371;DHT22;11858;51.056;3.712;2024-01-10T07:34:25;-4.00;99.90
23371;DHT22;11858;51.056;3.712;2024-01-10T07:36:51;-4.00;99.90
23371;DHT22;11858;51.056;3.712;2024-01-10T07:39:17;-4.00;99.90
23371;DHT22;11858;51.056;3.712;2024-01-10T07:41:46;-3.80;99.90
23371;DHT22;11858;51.056;3.712;2024-01-10T07:44:12;-3.80;99.90
23371;DHT22;11858;51.056;3.712;2024-01-10T07:46:37;-3.80;99.90
23371;DHT22;11858;51.056;3.712;2024-01-10T07:49:06;-3.70;99.90
23371;DHT22;11858;51.056;3.712;2024-01-10T07:51:31;-3.80;99.90
23371;DHT22;11858;51.056;3.712;2024-01-10T07:53:58;-3.80;99.90
23371;DHT22;11858;51.056;3.712;2024-01-10T07:56:24;-3.80;99.90
23371;DHT22;11858;51.056;3.712;2024-01-10T07:58:50;-3.80;99.90
23371;DHT22;11858;51.056;3.712;2024-01-10T08:01:17;-3.70;99.90
23371;DHT22;11858;51.056;3.712;2024-01-10T08:03:43;-3.70;99.90
23371;DHT22;11858;51.056;3.712;2024-01-10T08:06:08;-3.60;99.90
23371;DHT22;11858;51.056;3.712;2024-01-10T08:08:35;-3.60;99.90
23371;DHT22;11858;51.056;3.712;2024-01-10T08:11:02;-3.60;99.90
23371;DHT22;11858;51.056;3.712;2024-01-10T08:13:28;-3.70;99.90
23371;DHT22;11858;51.056;3.712;2024-01-10T08:15:54;-3.70;99.90
23371;DHT22;11858;51.056;3.712;2024-01-10T08:18:19;-3.70;99.90
23371;DHT22;11858;51.056;3.712;2024-01-10T08:20:45;-3.60;99.90
23371;DHT22;11858;51.056;3.712;2024-01-10T08:23:11;-3.70;99.90
23371;DHT22;11858;51.056;3.712;2024-01-10T08:25:36;-3.70;99.90
23371;DHT22;11858;51.056;3.712;2024-01-10T08:28:03;-3.60;99.90
23371;DHT22;11858;51.056;3.712;2024-01-10T08:30:29;-3.50;99.90
23371;DHT22;11858;51.056;3.712;2024-01-10T08:32:55;-3.50;99.90
23371;DHT22;11858;51.056;3.712;2024-01-10T08:35:20;-3.50;99.90
23371;DHT22;11858;51.056;3.712;2024-01-10T08:37:46;-3.50;99.90
23371;DHT22;11858;51.056;3.712;2024-01-10T08:40:12;-3.50;99.90
23371;DHT22;11858;51.056;3.712;2024-01-10T08:42:43;-3.50;99.90
23371;DHT22;11858;51.056;3.712;2024-01-10T08:45:09;-3.60;99.90
23371;DHT22;11858;51.056;3.712;2024-01-10T08:47:36;-3.40;99.90
23371;DHT22;11858;51.056;3.712;2024-01-10T08:50:03;-3.50;99.90
23371;DHT22;11858;51.056;3.712;2024-01-10T08:52:31;-3.40;99.90
23371;DHT22;11858;51.056;3.712;2024-01-10T08:54:56;-3.30;99.90
23371;DHT22;11858;51.056;3.712;2024-01-10T08:57:22;-3.30;99.90
23371;DHT22;11858;51.056;3.712;2024-01-10T08:59:48;-3.10;99.90
23371;DHT22;11858;51.056;3.712;2024-01-10T09:02:14;-3.10;99.90
23371;DHT22;11858;51.056;3.712;2024-01-10T09:04:40;-3.00;99.90
23371;DHT22;11858;51.056;3.712;2024-01-10T09:07:07;-2.90;99.90
23371;DHT22;11858;51.056;3.712;2024-01-10T09:09:32;-2.90;99.90
23371;DHT22;11858;51.056;3.712;2024-01-10T09:11:59;-2.90;99.90
23371;DHT22;11858;51.056;3.712;2024-01-10T09:14:25;-2.80;99.90
23371;DHT22;11858;51.056;3.712;2024-01-10T09:16:51;-2.80;99.90
23371;DHT22;11858;51.056;3.712;2024-01-10T09:19:17;-2.80;99.90
23371;DHT22;11858;51.056;3.712;2024-01-10T09:21:43;-2.70;99.90
23371;DHT22;11858;51.056;3.712;2024-01-10T09:24:09;-2.60;99.90
23371;DHT22;11858;51.056;3.712;2024-01-10T09:26:36;-2.50;99.90
23371;DHT22;11858;51.056;3.712;2024-01-10T09:29:02;-2.50;99.90
23371;DHT22;11858;51.056;3.712;2024-01-10T09:31:28;-2.60;99.90
23371;DHT22;11858;51.056;3.712;2024-01-10T09:33:53;-2.60;99.90
23371;DHT22;11858;51.056;3.712;2024-01-10T09:36:19;-2.50;99.90
23371;DHT22;11858;51.056;3.712;2024-01-10T09:38:44;-2.40;99.90
23371;DHT22;11858;51.056;3.712;2024-01-10T09:41:11;-2.40;99.90
23371;DHT22;11858;51.056;3.712;2024-01-10T09:43:38;-2.20;99.90
23371;DHT22;11858;51.056;3.712;2024-01-10T09:46:06;-2.10;99.90
23371;DHT22;11858;51.056;3.712;2024-01-10T09:48:32;-2.20;99.90
23371;DHT22;11858;51.056;3.712;2024-01-10T09:50:59;-2.10;99.90
23371;DHT22;11858;51.056;3.712;2024-01-10T09:53:26;-2.00;99.90
23371;DHT22;11858;51.056;3.712;2024-01-10T09:55:53;-1.90;99.90
23371;DHT22;11858;51.056;3.712;2024-01-10T09:58:25;-1.30;99.90
23371;DHT22;11858;51.056;3.712;2024-01-10T10:00:51;0.40;99.90
23371;DHT22;11858;51.056;3.712;2024-01-10T10:03:17;2.50;99.90
23371;DHT22;11858;51.056;3.712;2024-01-10T10:05:44;2.30;99.90
23371;DHT22;11858;51.056;3.712;2024-01-10T10:08:13;1.70;99.90
23371;DHT22;11858;51.056;3.712;2024-01-10T10:10:49;1.40;99.90
23371;DHT22;11858;51.056;3.712;2024-01-10T10:13:28;2.10;99.90
23371;DHT22;11858;51.056;3.712;2024-01-10T10:15:58;3.70;99.90
23371;DHT22;11858;51.056;3.712;2024-01-10T10:18:25;4.90;99.90
23371;DHT22;11858;51.056;3.712;2024-01-10T10:21:06;5.10;99.90
23371;DHT22;11858;51.056;3.712;2024-01-10T10:23:33;5.60;99.90
23371;DHT22;11858;51.056;3.712;2024-01-10T10:25:59;5.70;99.90
23371;DHT22;11858;51.056;3.712;2024-01-10T10:28:34;6.30;99.90
23371;DHT22;11858;51.056;3.712;2024-01-10T10:31:00;6.30;99.90
23371;DHT22;11858;51.056;3.712;2024-01-10T10:33:26;6.50;99.90
23371;DHT22;11858;51.056;3.712;2024-01-10T10:35:51;6.80;99.90
23371;DHT22;11858;51.056;3.712;2024-01-10T10:38:17;7.30;99.90
23371;DHT22;11858;51.056;3.712;2024-01-10T10:40:43;7.30;99.90
23371;DHT22;11858;51.056;3.712;2024-01-10T10:43:13;8.00;99.90
23371;DHT22;11858;51.056;3.712;2024-01-10T10:45:47;8.70;99.90
23371;DHT22;11858;51.056;3.712;2024-01-10T10:48:16;8.70;99.90
23371;DHT22;11858;51.056;3.712;2024-01-10T10:50:50;9.10;99.90
23371;DHT22;11858;51.056;3.712;2024-01-10T10:53:16;9.10;99.90
23371;DHT22;11858;51.056;3.712;2024-01-10T10:55:44;8.90;99.90
23371;DHT22;11858;51.056;3.712;2024-01-10T10:58:12;9.20;99.90
23371;DHT22;11858;51.056;3.712;2024-01-10T11:00:40;9.20;99.90
23371;DHT22;11858;51.056;3.712;2024-01-10T11:03:10;9.10;99.90
23371;DHT22;11858;51.056;3.712;2024-01-10T11:05:40;8.40;99.90
23371;DHT22;11858;51.056;3.712;2024-01-10T11:08:12;7.90;99.90
23371;DHT22;11858;51.056;3.712;2024-01-10T11:10:40;7.80;99.90
23371;DHT22;11858;51.056;3.712;2024-01-10T11:23:44;9.60;99.90
23371;DHT22;11858;51.056;3.712;2024-01-10T11:26:13;9.80;99.90
23371;DHT22;11858;51.056;3.712;2024-01-10T11:28:40;9.50;99.90
23371;DHT22;11858;51.056;3.712;2024-01-10T11:31:06;9.60;99.90
23371;DHT22;11858;51.056;3.712;2024-01-10T11:33:35;10.10;99.90
23371;DHT22;11858;51.056;3.712;2024-01-10T11:36:12;10.00;99.90
23371;DHT22;11858;51.056;3.712;2024-01-10T11:41:39;9.80;99.90
23371;DHT22;11858;51.056;3.712;2024-01-10T11:46:50;9.60;99.90
23371;DHT22;11858;51.056;3.712;2024-01-10T11:49:18;10.00;99.90
23371;DHT22;11858;51.056;3.712;2024-01-10T11:51:49;10.20;99.90
23371;DHT22;11858;51.056;3.712;2024-01-10T11:54:43;10.60;99.90
23371;DHT22;11858;51.056;3.712;2024-01-10T11:57:12;10.60;99.90
23371;DHT22;11858;51.056;3.712;2024-01-10T11:59:42;10.80;99.90
23371;DHT22;11858;51.056;3.712;2024-01-10T12:02:14;10.60;99.90
23371;DHT22;11858;51.056;3.712;2024-01-10T12:04:40;10.90;99.90
23371;DHT22;11858;51.056;3.712;2024-01-10T12:07:07;10.90;99.90
23371;DHT22;11858;51.056;3.712;2024-01-10T12:09:36;10.70;99.50
23371;DHT22;11858;51.056;3.712;2024-01-10T12:12:06;10.70;98.80
23371;DHT22;11858;51.056;3.712;2024-01-10T12:14:31;9.80;99.40
23371;DHT22;11858;51.056;3.712;2024-01-10T12:16:58;9.10;99.90
23371;DHT22;11858;51.056;3.712;2024-01-10T12:19:24;9.20;99.90
23371;DHT22;11858;51.056;3.712;2024-01-10T12:21:50;9.90;99.90
23371;DHT22;11858;51.056;3.712;2024-01-10T12:24:16;10.30;99.60
23371;DHT22;11858;51.056;3.712;2024-01-10T12:26:45;10.80;99.70
23371;DHT22;11858;51.056;3.712;2024-01-10T12:29:11;11.10;98.90
23371;DHT22;11858;51.056;3.712;2024-01-10T12:31:37;10.30;99.10
23371;DHT22;11858;51.056;3.712;2024-01-10T12:34:07;10.50;98.80
23371;DHT22;11858;51.056;3.712;2024-01-10T12:36:32;10.90;98.70
23371;DHT22;11858;51.056;3.712;2024-01-10T12:38:58;10.80;99.10
23371;DHT22;11858;51.056;3.712;2024-01-10T12:41:24;10.20;98.40
23371;DHT22;11858;51.056;3.712;2024-01-10T12:43:52;10.80;98.80
23371;DHT22;11858;51.056;3.712;2024-01-10T12:46:18;10.80;98.10
23371;DHT22;11858;51.056;3.712;2024-01-10T12:48:43;11.00;97.50
23371;DHT22;11858;51.056;3.712;2024-01-10T12:51:10;10.40;98.00
23371;DHT22;11858;51.056;3.712;2024-01-10T12:53:43;10.40;97.70
23371;DHT22;11858;51.056;3.712;2024-01-10T12:56:10;10.50;97.40
23371;DHT22;11858;51.056;3.712;2024-01-10T12:58:40;10.70;97.00
23371;DHT22;11858;51.056;3.712;2024-01-10T13:01:10;10.90;96.70
23371;DHT22;11858;51.056;3.712;2024-01-10T13:03:38;10.80;96.40
23371;DHT22;11858;51.056;3.712;2024-01-10T13:06:04;10.40;96.40
23371;DHT22;11858;51.056;3.712;2024-01-10T13:08:31;10.80;96.20
23371;DHT22;11858;51.056;3.712;2024-01-10T13:10:58;10.20;95.80
23371;DHT22;11858;51.056;3.712;2024-01-10T13:13:25;9.90;96.10
23371;DHT22;11858;51.056;3.712;2024-01-10T13:15:51;10.30;96.60
23371;DHT22;11858;51.056;3.712;2024-01-10T13:18:17;9.80;95.60
23371;DHT22;11858;51.056;3.712;2024-01-10T13:20:43;9.60;96.00
23371;DHT22;11858;51.056;3.712;2024-01-10T13:23:09;10.00;96.10
23371;DHT22;11858;51.056;3.712;2024-01-10T13:25:35;10.40;96.40
23371;DHT22;11858;51.056;3.712;2024-01-10T13:28:05;10.40;95.90
23371;DHT22;11858;51.056;3.712;2024-01-10T13:30:31;10.40;95.30
23371;DHT22;11858;51.056;3.712;2024-01-10T13:32:56;10.40;95.30
23371;DHT22;11858;51.056;3.712;2024-01-10T13:35:23;10.20;95.10
23371;DHT22;11858;51.056;3.712;2024-01-10T13:37:49;9.40;95.50
23371;DHT22;11858;51.056;3.712;2024-01-10T13:40:15;8.70;96.30
23371;DHT22;11858;51.056;3.712;2024-01-10T13:42:44;8.20;97.40
23371;DHT22;11858;51.056;3.712;2024-01-10T13:45:10;8.30;97.50
23371;DHT22;11858;51.056;3.712;2024-01-10T13:47:37;8.50;97.70
23371;DHT22;11858;51.056;3.712;2024-01-10T13:50:04;8.70;97.20
23371;DHT22;11858;51.056;3.712;2024-01-10T13:52:34;9.30;97.40
23371;DHT22;11858;51.056;3.712;2024-01-10T13:55:01;9.30;96.90
23371;DHT22;11858;51.056;3.712;2024-01-10T13:57:27;9.00;97.00
23371;DHT22;11858;51.056;3.712;2024-01-10T13:59:53;9.00;97.00
23371;DHT22;11858;51.056;3.712;2024-01-10T14:02:24;9.10;97.30
23371;DHT22;11858;51.056;3.712;2024-01-10T14:04:51;8.80;96.90
23371;DHT22;11858;51.056;3.712;2024-01-10T14:07:17;8.30;97.40
23371;DHT22;11858;51.056;3.712;2024-01-10T14:09:43;8.50;97.70
23371;DHT22;11858;51.056;3.712;2024-01-10T14:12:09;7.70;97.60
23371;DHT22;11858;51.056;3.712;2024-01-10T14:14:34;6.90;98.00
23371;DHT22;11858;51.056;3.712;2024-01-10T14:17:00;6.20;98.50
23371;DHT22;11858;51.056;3.712;2024-01-10T14:19:26;5.80;98.80
23371;DHT22;11858;51.056;3.712;2024-01-10T14:21:52;5.70;98.80
23371;DHT22;11858;51.056;3.712;2024-01-10T14:24:18;4.80;99.50
23371;DHT22;11858;51.056;3.712;2024-01-10T14:26:43;4.90;99.70
23371;DHT22;11858;51.056;3.712;2024-01-10T14:29:09;4.70;99.90
23371;DHT22;11858;51.056;3.712;2024-01-10T14:31:36;4.50;99.90
23371;DHT22;11858;51.056;3.712;2024-01-10T14:34:02;4.30;99.90
23371;DHT22;11858;51.056;3.712;2024-01-10T14:36:28;4.20;99.90
23371;DHT22;11858;51.056;3.712;2024-01-10T14:38:54;4.10;99.90
23371;DHT22;11858;51.056;3.712;2024-01-10T14:41:21;4.20;99.90
23371;DHT22;11858;51.056;3.712;2024-01-10T14:43:46;4.20;99.90
23371;DHT22;11858;51.056;3.712;2024-01-10T14:46:12;3.80;99.90
23371;DHT22;11858;51.056;3.712;2024-01-10T14:48:37;3.70;99.90
23371;DHT22;11858;51.056;3.712;2024-01-10T14:51:03;4.00;99.90
23371;DHT22;11858;51.056;3.712;2024-01-10T14:53:32;3.80;99.90
23371;DHT22;11858;51.056;3.712;2024-01-10T14:56:00;3.70;99.90
23371;DHT22;11858;51.056;3.712;2024-01-10T14:58:26;3.50;99.90
23371;DHT22;11858;51.056;3.712;2024-01-10T15:00:52;3.40;99.90
23371;DHT22;11858;51.056;3.712;2024-01-10T15:03:17;3.30;99.90
23371;DHT22;11858;51.056;3.712;2024-01-10T15:05:43;3.20;99.90
23371;DHT22;11858;51.056;3.712;2024-01-10T15:08:09;3.30;99.90
23371;DHT22;11858;51.056;3.712;2024-01-10T15:10:36;3.40;99.90
23371;DHT22;11858;51.056;3.712;2024-01-10T15:13:02;3.10;99.90
23371;DHT22;11858;51.056;3.712;2024-01-10T15:15:29;3.00;99.90
23371;DHT22;11858;51.056;3.712;2024-01-10T15:17:55;2.90;99.90
23371;DHT22;11858;51.056;3.712;2024-01-10T15:20:20;2.80;99.90
23371;DHT22;11858;51.056;3.712;2024-01-10T15:22:47;2.80;99.90
23371;DHT22;11858;51.056;3.712;2024-01-10T15:25:13;2.60;99.90
23371;DHT22;11858;51.056;3.712;2024-01-10T15:27:38;2.60;99.90
23371;DHT22;11858;51.056;3.712;2024-01-10T15:30:04;2.70;99.90
23371;DHT22;11858;51.056;3.712;2024-01-10T15:32:31;2.70;99.90
23371;DHT22;11858;51.056;3.712;2024-01-10T15:34:57;2.60;99.90
23371;DHT22;11858;51.056;3.712;2024-01-10T15:37:23;2.40;99.90
23371;DHT22;11858;51.056;3.712;2024-01-10T15:39:49;2.40;99.90
23371;DHT22;11858;51.056;3.712;2024-01-10T15:42:15;2.30;99.90
23371;DHT22;11858;51.056;3.712;2024-01-10T15:44:42;2.40;99.90
23371;DHT22;11858;51.056;3.712;2024-01-10T15:47:08;2.30;99.90